Roßfeld Airfield

DE-0332 · Badenia-Wirtembergia, Niemcy

3 października 2022

Czas Kod Pogoda Temp. Widoczność Sufit Wiatr METAR/SPECI
03:50
M
9 °C 10 km+ 2.900 ft Var Var 2 kt METAR EDDS 030150Z AUTO VRB02KT 9999 FEW014 BKN029 BKN034 09/09 Q1025
03:20
V
9 °C 10 km+ - 350° 350° 3 kt METAR EDDS 030120Z AUTO 35003KT 9999 FEW007 SCT029 09/08 Q1025
02:50
V
10 °C 10 km+ - 310° 310° 3 kt METAR EDDS 030050Z AUTO 31003KT 280V360 9999 FEW007 10/09 Q1025
02:20
V
10 °C 10 km+ - Var 000° 0 kt METAR EDDS 030020Z AUTO 00000KT 9999 R25/0700N SCT036 10/10 Q1025
01:50
V
10 °C 10 km+ - 320° 320° 2 kt METAR EDDS 022350Z AUTO 32002KT 9999 SCT037 10/10 Q1024
01:20
V
11 °C 10 km+ 3.400 ft 270° 270° 7 kt METAR EDDS 022320Z AUTO 27007KT 9999 BKN034 11/10 Q1024
00:50
V
11 °C 10 km+ 3.000 ft 280° 280° 6 kt METAR EDDS 022250Z AUTO 28006KT 9999 FEW021 BKN030 11/10 Q1024
00:20
V
11 °C 10 km+ 3.100 ft 290° 290° 5 kt METAR EDDS 022220Z AUTO 29005KT 9999 FEW018 SCT025 BKN031 11/11 Q1024

2 października 2022

Czas Kod Pogoda Temp. Widoczność Sufit Wiatr METAR/SPECI
23:50
M
11 °C 10 km+ 2.300 ft 300° 300° 3 kt METAR EDDS 022150Z AUTO 30003KT 9999 SCT019 BKN023 BKN027 11/11 Q1024
23:20
M
12 °C 10 km+ 1.500 ft 300° 300° 3 kt METAR EDDS 022120Z AUTO 30003KT 9999 SCT011 BKN015 BKN023 12/11 Q1024
22:50
M
12 °C 10 km+ 1.300 ft 280° 280° 4 kt METAR EDDS 022050Z AUTO 28004KT 240V300 9999 BKN013 OVC023 12/11 Q1023
22:20
M
12 °C 10 km+ 2.400 ft 270° 270° 1 kt METAR EDDS 022020Z AUTO 27001KT 9999 FEW005 BKN024 12/11 Q1022
21:50
V
12 °C 10 km+ - Var Var 2 kt METAR EDDS 021950Z AUTO VRB02KT 9999 -SHRA FEW005 FEW///TCU 12/11 Q1022 RESHRA NOSIG
21:20
I
12 °C 4 km - 270° 270° 3 kt METAR EDDS 021920Z AUTO 27003KT 240V350 4000 +SHRA BR FEW008 SCT///CB 12/11 Q1022 BECMG 8000 NSW
20:50
V
12 °C 10 km+ - 300° 300° 3 kt METAR EDDS 021850Z AUTO 30003KT 9999 -RA FEW009 SCT017 12/11 Q1022 TEMPO RA
20:20
V
12 °C 10 km+ - Var Var 2 kt METAR EDDS 021820Z AUTO VRB02KT 9999 -RA FEW009 SCT017 12/11 Q1021 TEMPO RA
19:50
M
12 °C 7 km - Var Var 1 kt METAR EDDS 021750Z AUTO VRB01KT 7000 -RA FEW012 12/11 Q1021 RERA TEMPO RA
19:20
M
12 °C 7 km 3.800 ft Var Var 2 kt METAR EDDS 021720Z AUTO VRB02KT 7000 +RA FEW006 BKN038 12/11 Q1021 TEMPO RA
18:50
M
12 °C 5 km 4.300 ft Var Var 2 kt METAR EDDS 021650Z AUTO VRB02KT 5000 RA BR FEW006 BKN043 12/12 Q1020 NOSIG
18:20
V
12 °C 10 km+ - Var Var 1 kt METAR EDDS 021620Z AUTO VRB01KT 9999 SHRA FEW011 FEW///TCU 12/11 Q1020 TEMPO -SHRA
17:50
I
12 °C 3,1 km 3.100 ft Var Var 3 kt METAR EDDS 021550Z AUTO VRB03KT 3100 SHRA BR SCT007 BKN031 OVC046 FEW///TCU 12/11 Q1020 TEMPO -SHRA
17:20
I
12 °C 3,7 km 700 ft Var Var 2 kt METAR EDDS 021520Z AUTO VRB02KT 3700 SHRA BR BKN007 OVC042 BKN///TCU 12/11 Q1019 TEMPO 5000 -SHRA
16:50
M
13 °C 10 km+ 1.100 ft 340° 340° 6 kt METAR EDDS 021450Z AUTO 34006KT 290V360 9999 -RADZ BKN011 BKN025 13/12 Q1019 TEMPO 4500 RADZ BKN008
16:20
I
13 °C 10 km+ 700 ft 360° 360° 8 kt METAR EDDS 021420Z AUTO 36008KT 320V030 9999 BKN007 BKN013 OVC027 13/12 Q1019 TEMPO RA
15:50
V
13 °C 10 km+ 3.000 ft 340° 340° 5 kt METAR EDDS 021350Z AUTO 34005KT 300V030 9999 -SHRA SCT007 BKN030 OVC040 FEW///TCU 13/12 Q1019 RESHRA NOSIG
15:20
M
13 °C 10 km+ 2.500 ft 340° 340° 6 kt METAR EDDS 021320Z AUTO 34006KT 9999 SHRA SCT007 BKN025 BKN032 BKN///TCU 13/12 Q1019 TEMPO -SHRA
14:50
M
13 °C 9 km 2.300 ft 320° 320° 7 kt METAR EDDS 021250Z AUTO 32007KT 9000 SHRA SCT008 BKN023 BKN028 SCT///TCU 13/12 Q1019 TEMPO -SHRA
14:20
I
13 °C 10 km+ 600 ft 360° 360° 5 kt METAR EDDS 021220Z AUTO 36005KT 320V080 9999 -SHRA BKN006 BKN028 OVC043 FEW///CB 13/12 Q1019 RESHRA TEMPO SHRA
13:50
I
13 °C 10 km+ 500 ft 010° 010° 8 kt METAR EDDS 021150Z AUTO 01008KT 340V040 9999 -SHRA BKN005 BKN026 OVC035 FEW///TCU 13/12 Q1019 TEMPO SHRA
13:20
M
13 °C 10 km+ 2.700 ft 350° 350° 8 kt METAR EDDS 021120Z AUTO 35008KT 330V040 9999 SCT005 BKN027 BKN035 13/12 Q1019 TEMPO BKN005
12:50
M
14 °C 10 km+ 2.700 ft 350° 350° 11 kt METAR EDDS 021050Z AUTO 35011KT 320V020 9999 FEW006 BKN027 OVC047 14/13 Q1019 NOSIG
12:20
V
18 °C 10 km+ 3.200 ft 260° 260° 17 - 28 kt METAR EDDS 021020Z AUTO 26017G28KT 9999 -SHRA SCT025 BKN032 OVC046 FEW///CB 18/14 Q1018 BECMG 26012KT
11:50
M
16 °C 10 km+ 2.400 ft Var Var 2 kt METAR EDDS 020950Z AUTO VRB02KT 9999 BKN024 BKN031 16/13 Q1018 NOSIG
11:20
M
14 °C 10 km+ 2.400 ft 070° 070° 3 kt METAR EDDS 020920Z AUTO 07003KT 020V100 9999 BKN024 BKN031 BKN038 14/13 Q1019 NOSIG
10:50
M
13 °C 10 km+ 2.300 ft Var Var 2 kt METAR EDDS 020850Z AUTO VRB02KT 9999 BKN023 OVC030 13/12 Q1019 TEMPO BKN013
10:20
M
13 °C 10 km+ 2.200 ft Var Var 1 kt METAR EDDS 020820Z AUTO VRB01KT 9999 BKN022 OVC028 OVC036 13/12 Q1019 TEMPO BKN013
09:50
M
12 °C 10 km+ 2.600 ft Var Var 1 kt METAR EDDS 020750Z AUTO VRB01KT 9999 BKN026 BKN037 12/12 Q1019 NOSIG
09:20
V
13 °C 10 km+ 4.100 ft Var Var 1 kt METAR EDDS 020720Z AUTO VRB01KT 9999 SCT026 OVC041 13/11 Q1019 NOSIG
08:50
V
12 °C 10 km+ 3.900 ft Var Var 2 kt METAR EDDS 020650Z AUTO VRB02KT 9999 FEW032 BKN039 12/11 Q1019 NOSIG
08:20
M
12 °C 6 km 4.300 ft 250° 250° 3 kt METAR EDDS 020620Z AUTO 25003KT 200V310 6000 -SHRA FEW032 BKN043 FEW///TCU 12/11 Q1020 TEMPO 4000 RADZ BKN013
07:50
V
12 °C 10 km+ - Var Var 2 kt METAR EDDS 020550Z AUTO VRB02KT 9999 FEW031 12/11 Q1020 NOSIG
07:20
V
13 °C 10 km+ - Var Var 1 kt METAR EDDS 020520Z AUTO VRB01KT 9999 FEW041 13/11 Q1020 NOSIG
06:50
V
13 °C 10 km+ - Var Var 2 kt METAR EDDS 020450Z AUTO VRB02KT 9999 -RA NSC 13/11 Q1020 NOSIG
06:20
V
13 °C 10 km+ - Var Var 3 kt METAR EDDS 020420Z AUTO VRB03KT 9999 -RA NSC 13/11 Q1020 NOSIG
05:50
V
13 °C 10 km+ - Var Var 2 kt METAR EDDS 020350Z AUTO VRB02KT 9999 FEW038 13/11 Q1020
05:20
V
13 °C 10 km+ - Var Var 2 kt METAR EDDS 020320Z AUTO VRB02KT 9999 FEW029 13/11 Q1020
04:50
V
13 °C 10 km+ - 220° 220° 5 kt METAR EDDS 020250Z AUTO 22005KT 150V280 9999 SCT029 13/11 Q1020
04:20
V
13 °C 10 km+ - 230° 230° 6 kt METAR EDDS 020220Z AUTO 23006KT 180V270 9999 SCT035 13/11 Q1020
03:50
V
13 °C 10 km+ - 230° 230° 8 kt METAR EDDS 020150Z AUTO 23008KT 190V270 9999 FEW043 13/11 Q1020
03:20
V
13 °C 10 km+ - 230° 230° 7 kt METAR EDDS 020120Z AUTO 23007KT 180V280 CAVOK 13/11 Q1020
02:50
V
12 °C 10 km+ - 210° 210° 3 kt METAR EDDS 020050Z AUTO 21003KT 150V280 9999 VCSH FEW040 FEW///TCU 12/11 Q1020 RESHRA
02:20
V
12 °C 10 km+ - Var Var 2 kt METAR EDDS 020020Z AUTO VRB02KT 9999 VCSH SCT044 FEW///TCU 12/11 Q1020
01:50
V
12 °C 10 km+ - Var Var 4 kt METAR EDDS 012350Z AUTO VRB04KT CAVOK 12/11 Q1019
01:20
V
12 °C 10 km+ - Var Var 4 kt METAR EDDS 012320Z AUTO VRB04KT CAVOK 12/11 Q1019
00:50
V
12 °C 10 km+ - 200° 200° 4 kt METAR EDDS 012250Z AUTO 20004KT 150V250 9999 -SHRA FEW007 SCT026 FEW///CB 12/11 Q1019 RESHRA
00:20
M
12 °C 8 km 2.700 ft 280° 280° 4 kt METAR EDDS 012220Z AUTO 28004KT 230V320 8000 SHRA FEW013 BKN027 BKN038 FEW///CB 12/11 Q1019

1 października 2022

Czas Kod Pogoda Temp. Widoczność Sufit Wiatr METAR/SPECI
23:50
V
12 °C 9 km - 240° 240° 5 kt METAR EDDS 012150Z AUTO 24005KT 180V270 9000 SHRA FEW026 SCT048 FEW///CB 12/11 Q1018
23:20
V
13 °C 10 km+ - 230° 230° 7 kt METAR EDDS 012120Z AUTO 23007KT 160V280 9999 -SHRA FEW028 FEW///TCU 13/10 Q1018
22:50
V
13 °C 10 km+ - 240° 240° 9 kt METAR EDDS 012050Z AUTO 24009KT 210V270 9999 -SHRA FEW046 FEW///TCU 13/10 Q1017
22:20
V
13 °C 10 km+ - 220° 220° 8 kt METAR EDDS 012020Z AUTO 22008KT 150V280 9999 FEW044 13/10 Q1017
21:50
V
13 °C 10 km+ - 240° 240° 8 kt METAR EDDS 011950Z AUTO 24008KT 9999 FEW030 13/10 Q1017 NOSIG
21:20
V
13 °C 10 km+ 4.400 ft 250° 250° 6 kt METAR EDDS 011920Z AUTO 25006KT 210V290 9999 -SHRA SCT026 BKN044 FEW///TCU 13/10 Q1016 RESHRA NOSIG
20:50
V
13 °C 10 km+ - 220° 220° 6 kt METAR EDDS 011850Z AUTO 22006KT 180V320 9999 SHRA FEW043 FEW///TCU 13/10 Q1016 BECMG NSW
20:20
V
13 °C 10 km+ - 220° 220° 5 kt METAR EDDS 011820Z AUTO 22005KT 140V300 9999 -RA NSC 13/09 Q1015 TEMPO RA
19:50
V
13 °C 10 km+ - 210° 210° 5 kt METAR EDDS 011750Z AUTO 21005KT 130V300 CAVOK 13/10 Q1015 NOSIG
19:20
V
13 °C 10 km+ - 220° 220° 5 kt METAR EDDS 011720Z AUTO 22005KT 160V290 9999 VCSH FEW034 FEW///TCU 13/09 Q1014 NOSIG
18:50
V
13 °C 10 km+ - 220° 220° 6 kt METAR EDDS 011650Z AUTO 22006KT 150V270 9999 FEW029 13/10 Q1014 NOSIG
18:20
V
13 °C 10 km+ - Var Var 6 kt METAR EDDS 011620Z AUTO VRB06KT 9999 SCT027 13/10 Q1013 TEMPO 22015G25KT
17:50
V
13 °C 10 km+ - 220° 220° 7 kt METAR EDDS 011550Z AUTO 22007KT 150V260 9999 FEW026 13/10 Q1013 TEMPO 22015G25KT
17:20
V
14 °C 10 km+ - 200° 200° 7 kt METAR EDDS 011520Z AUTO 20007KT 150V270 CAVOK 14/10 Q1013 TEMPO 22015G25KT
16:50
V
14 °C 10 km+ - 210° 210° 8 kt METAR EDDS 011450Z AUTO 21008KT 150V270 9999 FEW026 14/10 Q1013 TEMPO 22015G25KT
16:20
V
14 °C 10 km+ - Var Var 7 kt METAR EDDS 011420Z AUTO VRB07KT 9999 SCT026 14/10 Q1013 TEMPO 22015G25KT
15:50
V
15 °C 10 km+ - 220° 220° 8 kt METAR EDDS 011350Z AUTO 22008KT 140V260 9999 SCT022 15/10 Q1013 TEMPO 22015G25KT
15:20
V
13 °C 10 km+ 4.600 ft 230° 230° 8 kt METAR EDDS 011320Z AUTO 23008KT 160V270 9999 FEW020 OVC046 13/09 Q1013 TEMPO 25020G30KT
14:50
M
13 °C 10 km+ 2.100 ft 230° 230° 10 kt METAR EDDS 011250Z AUTO 23010KT 170V300 9999 BKN021 BKN031 13/09 Q1012 TEMPO 25020G30KT
14:20
V
12 °C 10 km+ 3.900 ft 230° 230° 9 kt METAR EDDS 011220Z AUTO 23009KT 150V290 9999 SCT017 BKN039 12/09 Q1012 TEMPO 25020G30KT
13:50
M
12 °C 10 km+ 1.700 ft 200° 200° 9 - 19 kt METAR EDDS 011150Z AUTO 20009G19KT 130V260 9999 BKN017 BKN024 OVC030 12/09 Q1012 NOSIG
13:20
M
11 °C 10 km+ 1.700 ft 200° 200° 9 kt METAR EDDS 011120Z AUTO 20009KT 130V260 9999 BKN017 BKN032 11/09 Q1012 NOSIG
12:50
V
11 °C 10 km+ - 200° 200° 10 kt METAR EDDS 011050Z AUTO 20010KT 160V270 9999 -RA SCT019 11/09 Q1012 NOSIG
12:20
V
11 °C 10 km+ 4.300 ft 210° 210° 8 - 19 kt METAR EDDS 011020Z AUTO 21008G19KT 170V270 9999 -RA FEW020 SCT026 BKN043 11/08 Q1012 NOSIG
11:50
V
11 °C 10 km+ 4.500 ft 220° 220° 8 kt METAR EDDS 010950Z AUTO 22008KT 130V270 9999 -RA FEW027 BKN045 11/08 Q1012 NOSIG
11:20
V
10 °C 10 km+ 4.900 ft 210° 210° 9 kt METAR EDDS 010920Z AUTO 21009KT 160V310 9999 -RA BKN049 10/07 Q1011 NOSIG
10:50
V
10 °C 10 km+ - Var Var 7 kt METAR EDDS 010850Z AUTO VRB07KT 9999 -RA NSC 10/07 Q1011 NOSIG
10:20
V
10 °C 10 km+ - 200° 200° 9 kt METAR EDDS 010820Z AUTO 20009KT 110V250 9999 -RA NSC 10/06 Q1011 NOSIG
09:50
V
10 °C 10 km+ - 190° 190° 7 kt METAR EDDS 010750Z AUTO 19007KT 160V250 CAVOK 10/06 Q1011 NOSIG
09:20
V
10 °C 10 km+ - 190° 190° 4 kt METAR EDDS 010720Z AUTO 19004KT 140V250 9999 -RA NSC 10/06 Q1011 NOSIG
08:50
V
9 °C 10 km+ - 170° 170° 5 kt METAR EDDS 010650Z AUTO 17005KT 090V230 9999 -RA NSC 09/06 Q1011 NOSIG
08:20
V
9 °C 10 km+ - 160° 160° 4 kt METAR EDDS 010620Z AUTO 16004KT 100V220 9999 -RA FEW032 09/06 Q1011 NOSIG
07:50
V
9 °C 10 km+ - 180° 180° 4 kt METAR EDDS 010550Z AUTO 18004KT 110V250 CAVOK 09/05 Q1012 NOSIG
07:20
V
9 °C 10 km+ - 200° 200° 4 kt METAR EDDS 010520Z AUTO 20004KT 140V300 CAVOK 09/05 Q1012 NOSIG
06:50
V
9 °C 10 km+ - 190° 190° 7 kt METAR EDDS 010450Z AUTO 19007KT 150V230 CAVOK 09/05 Q1012 NOSIG
06:20
V
9 °C 10 km+ - Var Var 1 kt METAR EDDS 010420Z AUTO VRB01KT CAVOK 09/05 Q1012 NOSIG
05:50
V
8 °C 10 km+ - Var Var 2 kt METAR EDDS 010350Z AUTO VRB02KT CAVOK 08/06 Q1012
05:20
V
7 °C 10 km+ - Var Var 1 kt METAR EDDS 010320Z AUTO VRB01KT CAVOK 07/05 Q1013
04:50
V
8 °C 10 km+ - Var Var 2 kt METAR EDDS 010250Z AUTO VRB02KT CAVOK 08/06 Q1013
04:20
V
7 °C 10 km+ - Var Var 2 kt METAR EDDS 010220Z AUTO VRB02KT CAVOK 07/06 Q1013
03:50
V
7 °C 10 km+ - 230° 230° 3 kt METAR EDDS 010150Z AUTO 23003KT 190V260 CAVOK 07/06 Q1013
03:20
V
6 °C 10 km+ - 240° 240° 4 kt METAR EDDS 010120Z AUTO 24004KT CAVOK 06/05 Q1014
02:50
V
6 °C 10 km+ - 220° 220° 3 kt METAR EDDS 010050Z AUTO 22003KT 160V270 CAVOK 06/05 Q1014
02:20
V
6 °C 10 km+ - Var Var 1 kt METAR EDDS 010020Z AUTO VRB01KT CAVOK 06/05 Q1014
01:50
V
6 °C 10 km+ - Var Var 1 kt METAR EDDS 302350Z AUTO VRB01KT CAVOK 06/05 Q1014
01:20
V
6 °C 10 km+ - Var Var 1 kt METAR EDDS 302320Z AUTO VRB01KT CAVOK 06/05 Q1014
00:50
V
7 °C 10 km+ - Var Var 2 kt METAR EDDS 302250Z AUTO VRB02KT CAVOK 07/06 Q1014
00:20
V
7 °C 10 km+ - Var Var 2 kt METAR EDDS 302220Z AUTO VRB02KT CAVOK 07/06 Q1014

30 września 2022

Czas Kod Pogoda Temp. Widoczność Sufit Wiatr METAR/SPECI
23:50
V
7 °C 10 km+ - Var Var 2 kt METAR EDDS 302150Z AUTO VRB02KT 9999 FEW035 07/06 Q1014
23:20
V
8 °C 10 km+ - Var Var 2 kt METAR EDDS 302120Z AUTO VRB02KT CAVOK 08/05 Q1013
22:50
V
9 °C 10 km+ - Var Var 1 kt METAR EDDS 302050Z AUTO VRB01KT CAVOK 09/07 Q1013
22:20
V
9 °C 10 km+ - Var Var 2 kt METAR EDDS 302020Z AUTO VRB02KT CAVOK 09/07 Q1013
21:50
V
10 °C 10 km+ - Var Var 2 kt METAR EDDS 301950Z AUTO VRB02KT 9999 FEW047 10/07 Q1013 NOSIG
21:20
V
10 °C 10 km+ 4.700 ft Var Var 2 kt METAR EDDS 301920Z AUTO VRB02KT 9999 BKN047 10/07 Q1013 NOSIG
20:50
V
11 °C 10 km+ - 230° 230° 3 kt METAR EDDS 301850Z AUTO 23003KT 180V280 9999 SCT047 11/07 Q1013 NOSIG
20:20
V
10 °C 10 km+ - Var Var 2 kt METAR EDDS 301820Z AUTO VRB02KT CAVOK 10/06 Q1013 NOSIG
19:50
V
10 °C 10 km+ - Var Var 2 kt METAR EDDS 301750Z AUTO VRB02KT CAVOK 10/06 Q1013 NOSIG
19:20
V
12 °C 10 km+ - Var Var 1 kt METAR EDDS 301720Z AUTO VRB01KT CAVOK 12/07 Q1012 NOSIG
Starsze dane

My i osoby trzecie śledzimy twoje zachowanie w internecie na naszej stronie za pomocą plików cookie. Jeśli kontynuujesz, zakładamy, że zgadzasz się z naszą polityką plików cookie. Dowiedz się więcej